Time;durP1;ratioP1;P1;durP2;ratioP2;P2;SDS_P1;SDS_P2;PMS_P1;PMS_P2;Temp;Humidity;BMP_temperature;BMP_pressure;BME280_temperature;BME280_humidity;BME280_pressure;Samples;Min_cycle;Max_cycle;Signal;HPM_P1;HPM_P2
2023/07/30 00:01:40;;;;;;;0.00;0.00;;;18.70;99.50;;;;;;4985216;28;20573;-80
2023/07/30 00:04:06;;;;;;;0.07;0.07;;;18.70;98.70;;;;;;4986586;28;20850;-81
2023/07/30 00:06:31;;;;;;;0.10;0.10;;;18.70;98.50;;;;;;4984893;28;20026;-81
2023/07/30 00:08:57;;;;;;;0.00;0.00;;;18.80;98.40;;;;;;4986652;28;20034;-82
2023/07/30 00:11:22;;;;;;;0.00;0.00;;;18.80;97.90;;;;;;4981444;28;20835;-81
2023/07/30 00:13:48;;;;;;;0.00;0.00;;;18.80;97.80;;;;;;4983665;28;20524;-81
2023/07/30 00:16:14;;;;;;;0.30;0.30;;;18.70;97.30;;;;;;4978855;28;20093;-81
2023/07/30 00:18:40;;;;;;;0.73;0.47;;;18.90;96.90;;;;;;4988867;28;20030;-81
2023/07/30 00:21:05;;;;;;;0.00;0.00;;;18.80;97.10;;;;;;4986211;28;20053;-81
2023/07/30 00:23:31;;;;;;;0.27;0.27;;;18.70;97.40;;;;;;4986075;28;20030;-81
2023/07/30 00:25:57;;;;;;;0.00;0.00;;;18.80;97.10;;;;;;4984185;28;20033;-82
2023/07/30 00:28:22;;;;;;;0.00;0.00;;;18.80;96.70;;;;;;4985852;28;20034;-81
2023/07/30 00:30:48;;;;;;;0.03;0.03;;;18.60;97.10;;;;;;4985134;28;20089;-83
2023/07/30 00:33:13;;;;;;;0.23;0.23;;;18.60;97.40;;;;;;4985586;28;20092;-82
2023/07/30 00:35:39;;;;;;;0.73;0.40;;;18.60;97.00;;;;;;4985707;28;20649;-81
2023/07/30 00:38:05;;;;;;;0.00;0.00;;;18.60;97.00;;;;;;4985778;28;20367;-81
2023/07/30 00:40:30;;;;;;;0.00;0.00;;;18.60;96.90;;;;;;4984985;28;20136;-81
2023/07/30 00:42:56;;;;;;;0.40;0.40;;;18.40;97.20;;;;;;4983430;28;20026;-83
2023/07/30 00:45:22;;;;;;;0.00;0.00;;;18.30;97.30;;;;;;4985065;28;20541;-84
2023/07/30 00:47:48;;;;;;;0.00;0.00;;;18.10;97.70;;;;;;4985018;28;20030;-82
2023/07/30 00:50:15;;;;;;;0.10;0.10;;;18.20;97.80;;;;;;4985197;28;20122;-81
2023/07/30 00:52:42;;;;;;;0.00;0.00;;;18.30;97.30;;;;;;4985376;28;20485;-81
2023/07/30 00:55:09;;;;;;;0.00;0.00;;;18.20;97.30;;;;;;4983721;28;20030;-82
2023/07/30 00:57:36;;;;;;;;;;;18.10;97.30;;;;;;4985277;28;20100;-82
2023/07/30 01:00:06;;;;;;;0.30;0.30;;;18.00;97.90;;;;;;4982453;28;19910;-80
2023/07/30 01:02:32;;;;;;;0.13;0.13;;;18.20;97.40;;;;;;4981743;28;20796;-80
2023/07/30 01:04:59;;;;;;;0.00;0.00;;;18.40;96.70;;;;;;4984642;28;20042;-81
2023/07/30 01:07:25;;;;;;;0.43;0.43;;;18.30;96.80;;;;;;4980901;28;20501;-81
2023/07/30 01:09:52;;;;;;;0.00;0.00;;;18.30;97.20;;;;;;4985834;28;20037;-82
2023/07/30 01:12:18;;;;;;;0.08;0.08;;;18.40;96.90;;;;;;4984495;28;20180;-81
2023/07/30 01:14:45;;;;;;;0.00;0.00;;;18.40;96.80;;;;;;4985294;28;20501;-80
2023/07/30 01:17:12;;;;;;;0.10;0.10;;;18.40;96.90;;;;;;4985009;28;20114;-83
2023/07/30 01:19:37;;;;;;;0.00;0.00;;;18.60;96.70;;;;;;4984839;28;20132;-82
2023/07/30 01:22:03;;;;;;;0.00;0.00;;;18.60;96.30;;;;;;4983235;28;20109;-81
2023/07/30 01:24:29;;;;;;;0.03;0.03;;;18.60;96.50;;;;;;4983657;28;20157;-80
2023/07/30 01:27:07;;;;;;;0.00;0.00;;;18.70;96.10;;;;;;4984844;28;20037;-80
2023/07/30 01:29:41;;;;;;;1.85;0.73;;;18.80;95.60;;;;;;4985042;28;20042;-81
2023/07/30 01:32:10;;;;;;;0.05;0.05;;;18.70;95.60;;;;;;4977624;28;20870;-84
2023/07/30 01:34:37;;;;;;;0.10;0.10;;;18.50;96.10;;;;;;4983967;28;20042;-80
2023/07/30 01:37:07;;;;;;;0.00;0.00;;;18.50;96.20;;;;;;4985090;28;20026;-80
2023/07/30 01:39:34;;;;;;;0.00;0.00;;;18.40;96.10;;;;;;4983035;28;20034;-81
2023/07/30 01:42:00;;;;;;;0.00;0.00;;;18.40;96.10;;;;;;4985006;28;20113;-80
2023/07/30 01:44:26;;;;;;;0.00;0.00;;;18.30;96.30;;;;;;4985534;28;20039;-81
2023/07/30 01:46:51;;;;;;;0.10;0.10;;;18.40;96.20;;;;;;4984803;28;20034;-81
2023/07/30 01:49:17;;;;;;;0.10;0.10;;;18.60;96.00;;;;;;4983850;28;20034;-81
2023/07/30 01:51:43;;;;;;;0.00;0.00;;;18.60;95.70;;;;;;4983521;28;20037;-81
2023/07/30 01:54:08;;;;;;;0.10;0.10;;;18.60;95.60;;;;;;4983631;28;20545;-82
2023/07/30 01:56:34;;;;;;;2.27;0.33;;;18.60;95.40;;;;;;4983632;28;20513;-81
2023/07/30 01:59:00;;;;;;;0.00;0.00;;;18.50;95.60;;;;;;4984691;28;20471;-82
2023/07/30 02:01:25;;;;;;;0.00;0.00;;;18.40;95.50;;;;;;4984738;28;20030;-83
2023/07/30 02:03:51;;;;;;;0.10;0.10;;;18.50;95.70;;;;;;4984366;28;20078;-82
2023/07/30 02:06:17;;;;;;;0.10;0.10;;;18.50;95.40;;;;;;4984910;28;20140;-84
2023/07/30 02:08:42;;;;;;;0.00;0.00;;;18.50;95.00;;;;;;4983465;28;20027;-83
2023/07/30 02:11:08;;;;;;;0.30;0.30;;;18.50;95.10;;;;;;4981969;28;20557;-83
2023/07/30 02:13:34;;;;;;;0.60;0.60;;;18.40;95.10;;;;;;4983903;28;20492;-82
2023/07/30 02:15:59;;;;;;;0.27;0.27;;;18.40;95.10;;;;;;4983128;28;20112;-82
2023/07/30 02:18:25;;;;;;;1.60;0.73;;;18.10;95.20;;;;;;4983637;28;20030;-82
2023/07/30 02:20:51;;;;;;;0.20;0.20;;;17.90;96.00;;;;;;4983351;28;20061;-81
2023/07/30 02:23:16;;;;;;;0.00;0.00;;;17.90;96.00;;;;;;4982480;28;20077;-83
2023/07/30 02:25:42;;;;;;;0.00;0.00;;;17.90;96.20;;;;;;4983034;28;20478;-82
2023/07/30 02:28:09;;;;;;;0.20;0.20;;;17.70;96.50;;;;;;4982871;28;20645;-82
2023/07/30 02:30:34;;;;;;;0.15;0.15;;;17.70;96.60;;;;;;4981203;28;20501;-80
2023/07/30 02:33:00;;;;;;;1.60;0.73;;;17.50;96.50;;;;;;4982891;28;20113;-83
2023/07/30 02:35:26;;;;;;;0.20;0.20;;;17.70;95.80;;;;;;4982987;28;20501;-81
2023/07/30 02:37:52;;;;;;;0.00;0.00;;;17.60;95.80;;;;;;4981415;28;20036;-80
2023/07/30 02:40:18;;;;;;;0.07;0.07;;;17.70;95.50;;;;;;4983083;28;20046;-80
2023/07/30 02:42:44;;;;;;;0.23;0.23;;;17.70;95.20;;;;;;4981584;28;20383;-81
2023/07/30 02:45:10;;;;;;;0.33;0.33;;;17.70;95.40;;;;;;4982594;28;20026;-80
2023/07/30 02:47:35;;;;;;;1.25;1.20;;;17.50;95.40;;;;;;4983187;28;20030;-81
2023/07/30 02:50:03;;;;;;;0.47;0.47;;;17.30;95.40;;;;;;4981391;28;20042;-81
2023/07/30 02:52:28;;;;;;;0.00;0.00;;;16.90;96.10;;;;;;4981216;28;20830;-81
2023/07/30 02:54:54;;;;;;;0.13;0.10;;;16.80;96.80;;;;;;4981066;28;20085;-80
2023/07/30 02:57:20;;;;;;;0.27;0.27;;;16.80;97.10;;;;;;4982224;28;20121;-81
2023/07/30 02:59:46;;;;;;;0.00;0.00;;;16.80;96.80;;;;;;4981661;28;20037;-80
2023/07/30 03:02:11;;;;;;;1.93;0.30;;;16.80;96.60;;;;;;4981011;28;20836;-83
2023/07/30 03:04:37;;;;;;;0.40;0.40;;;16.90;96.20;;;;;;4982941;28;20035;-81
2023/07/30 03:07:03;;;;;;;0.47;0.47;;;16.90;95.90;;;;;;4982038;28;20026;-80
2023/07/30 03:09:28;;;;;;;0.00;0.00;;;16.80;95.90;;;;;;4980869;28;20038;-80
2023/07/30 03:11:54;;;;;;;0.10;0.10;;;16.70;96.40;;;;;;4981931;28;20054;-82
2023/07/30 03:14:20;;;;;;;0.10;0.10;;;16.90;96.00;;;;;;4981827;28;20041;-82
2023/07/30 03:16:49;;;;;;;0.00;0.00;;;16.60;96.40;;;;;;4982158;28;20097;-82
2023/07/30 03:19:15;;;;;;;0.20;0.20;;;16.80;96.30;;;;;;4980356;28;20034;-81
2023/07/30 03:21:41;;;;;;;0.10;0.10;;;16.80;96.30;;;;;;4981990;28;20623;-80
2023/07/30 03:24:07;;;;;;;0.00;0.00;;;16.80;96.30;;;;;;4980867;28;20058;-81
2023/07/30 03:26:33;;;;;;;0.00;0.00;;;16.80;96.10;;;;;;4984677;28;20039;-80
2023/07/30 03:28:59;;;;;;;0.00;0.00;;;16.80;96.00;;;;;;4985880;28;20069;-81
2023/07/30 03:31:25;;;;;;;0.00;0.00;;;16.70;96.20;;;;;;4986137;28;20038;-81
2023/07/30 03:33:51;;;;;;;0.00;0.00;;;16.80;95.70;;;;;;4986492;28;20076;-80
2023/07/30 03:36:16;;;;;;;0.00;0.00;;;16.70;95.80;;;;;;4986117;28;20042;-84
2023/07/30 03:38:43;;;;;;;0.13;0.13;;;16.70;96.00;;;;;;4985627;28;20038;-81
2023/07/30 03:41:10;;;;;;;0.10;0.10;;;16.60;95.90;;;;;;4986489;28;20106;-80
2023/07/30 03:43:37;;;;;;;0.10;0.10;;;16.50;95.90;;;;;;4986663;28;20030;-82
2023/07/30 03:46:02;;;;;;;0.00;0.00;;;16.40;95.90;;;;;;4984965;28;20022;-80
2023/07/30 03:48:28;;;;;;;0.00;0.00;;;16.30;96.20;;;;;;4986606;28;20750;-80
2023/07/30 03:50:55;;;;;;;0.00;0.00;;;16.30;96.30;;;;;;4986737;28;20042;-81
2023/07/30 03:53:21;;;;;;;0.30;0.30;;;16.20;96.40;;;;;;4985209;28;20334;-83
2023/07/30 03:55:47;;;;;;;0.00;0.00;;;16.20;96.30;;;;;;4986427;28;20286;-83
2023/07/30 03:58:12;;;;;;;0.27;0.27;;;16.20;96.40;;;;;;4987292;28;20030;-82
2023/07/30 04:00:38;;;;;;;0.47;0.47;;;16.10;96.70;;;;;;4988716;28;20457;-80
2023/07/30 04:03:04;;;;;;;0.10;0.10;;;16.20;96.50;;;;;;4986483;28;20041;-80
2023/07/30 04:05:30;;;;;;;0.00;0.00;;;16.00;96.60;;;;;;4987269;28;20478;-81
2023/07/30 04:07:56;;;;;;;0.22;0.22;;;16.10;96.70;;;;;;4985526;28;20030;-83
2023/07/30 04:10:22;;;;;;;0.20;0.20;;;16.00;96.90;;;;;;4984943;28;20512;-81
2023/07/30 04:12:48;;;;;;;0.60;0.40;;;16.00;97.10;;;;;;4986627;28;20811;-83
2023/07/30 04:15:15;;;;;;;0.10;0.10;;;16.00;97.10;;;;;;4987178;28;20033;-81
2023/07/30 04:17:41;;;;;;;1.02;1.00;;;15.90;97.60;;;;;;4986026;28;20018;-80
2023/07/30 04:20:07;;;;;;;1.13;0.73;;;15.90;97.90;;;;;;4986008;28;20037;-83
2023/07/30 04:22:33;;;;;;;0.20;0.20;;;15.90;98.10;;;;;;4984092;28;20061;-81
2023/07/30 04:24:59;;;;;;;0.10;0.10;;;15.80;98.10;;;;;;4985659;28;20034;-82
2023/07/30 04:27:24;;;;;;;0.57;0.57;;;16.00;97.80;;;;;;4985451;28;20030;-83
2023/07/30 04:29:50;;;;;;;0.00;0.00;;;16.00;97.40;;;;;;4984287;28;20034;-81
2023/07/30 04:32:16;;;;;;;0.00;0.00;;;15.90;97.60;;;;;;4985881;28;20022;-79
2023/07/30 04:34:41;;;;;;;0.10;0.10;;;15.80;97.70;;;;;;4980250;28;20041;-80
2023/07/30 04:37:07;;;;;;;0.10;0.10;;;15.70;97.70;;;;;;4981562;28;20039;-80
2023/07/30 04:39:33;;;;;;;0.00;0.00;;;15.80;97.70;;;;;;4980573;28;20030;-80
2023/07/30 04:41:59;;;;;;;1.20;0.23;;;15.80;97.30;;;;;;4989468;28;20045;-84
2023/07/30 04:44:24;;;;;;;0.23;0.23;;;15.90;97.50;;;;;;4992409;28;20848;-81
2023/07/30 04:46:50;;;;;;;0.00;0.00;;;15.80;97.80;;;;;;4992677;28;20490;-82
2023/07/30 04:49:16;;;;;;;0.03;0.03;;;15.90;97.70;;;;;;4992535;28;20490;-83
2023/07/30 04:51:41;;;;;;;0.33;0.33;;;16.10;97.30;;;;;;4992615;28;20022;-82
2023/07/30 04:54:07;;;;;;;0.53;0.53;;;16.40;96.50;;;;;;4993056;28;20061;-83
2023/07/30 04:56:33;;;;;;;0.03;0.03;;;16.80;95.20;;;;;;4992628;28;20125;-81
2023/07/30 04:58:58;;;;;;;0.03;0.03;;;16.90;94.60;;;;;;4992403;28;20058;-83
2023/07/30 05:01:24;;;;;;;0.20;0.20;;;17.00;94.20;;;;;;4990712;28;20041;-82
2023/07/30 05:03:50;;;;;;;0.20;0.20;;;16.50;94.80;;;;;;4990772;28;20056;-82
2023/07/30 05:06:16;;;;;;;0.10;0.10;;;16.40;96.00;;;;;;4987606;28;20449;-85
2023/07/30 05:08:42;;;;;;;0.00;0.00;;;17.40;93.80;;;;;;4989470;28;20033;-83
2023/07/30 05:11:08;;;;;;;0.10;0.10;;;18.00;91.90;;;;;;4991970;28;20031;-83
2023/07/30 05:13:33;;;;;;;0.10;0.10;;;18.50;90.60;;;;;;4992249;28;20478;-81
2023/07/30 05:15:59;;;;;;;0.00;0.00;;;19.10;88.70;;;;;;4990443;28;20081;-86
2023/07/30 05:18:25;;;;;;;0.63;0.27;;;19.80;85.40;;;;;;4994570;28;20033;-82
2023/07/30 05:20:50;;;;;;;0.00;0.00;;;20.30;82.80;;;;;;4990179;28;20050;-83
2023/07/30 05:23:16;;;;;;;0.10;0.10;;;20.90;80.30;;;;;;4990793;28;20088;-81
2023/07/30 05:25:42;;;;;;;0.00;0.00;;;21.00;78.10;;;;;;4991528;28;20046;-81
2023/07/30 05:28:07;;;;;;;0.00;0.00;;;21.40;77.00;;;;;;4992568;28;20105;-81
2023/07/30 05:30:33;;;;;;;0.00;0.00;;;21.30;76.50;;;;;;4988232;28;20649;-81
2023/07/30 05:32:59;;;;;;;0.00;0.00;;;21.10;75.30;;;;;;4989813;28;20029;-82
2023/07/30 05:35:24;;;;;;;0.00;0.00;;;21.40;73.90;;;;;;4987837;28;20034;-81
2023/07/30 05:37:50;;;;;;;0.30;0.30;;;22.00;72.10;;;;;;4984699;28;20081;-82
2023/07/30 05:40:16;;;;;;;0.00;0.00;;;22.90;70.20;;;;;;4985849;28;20026;-81
2023/07/30 05:42:41;;;;;;;4.80;0.93;;;23.00;69.90;;;;;;4985553;28;20030;-84
2023/07/30 05:45:08;;;;;;;0.07;0.07;;;22.90;70.80;;;;;;4987772;28;20104;-84
2023/07/30 05:47:33;;;;;;;0.00;0.00;;;23.00;69.30;;;;;;4989153;28;20030;-82
2023/07/30 05:49:59;;;;;;;0.20;0.20;;;23.80;67.30;;;;;;4992952;28;20038;-85
2023/07/30 05:52:25;;;;;;;0.00;0.00;;;24.60;63.40;;;;;;4988902;28;20022;-81
2023/07/30 05:54:50;;;;;;;0.00;0.00;;;24.70;63.30;;;;;;4991423;28;20026;-82
2023/07/30 05:57:16;;;;;;;0.00;0.00;;;25.20;61.00;;;;;;4988305;28;20042;-86
2023/07/30 05:59:42;;;;;;;0.37;0.37;;;25.50;59.60;;;;;;4995862;28;20062;-85
2023/07/30 06:02:07;;;;;;;0.00;0.00;;;25.70;60.00;;;;;;4990796;28;20510;-86
2023/07/30 06:04:33;;;;;;;0.00;0.00;;;25.90;57.50;;;;;;4989319;28;20034;-80
2023/07/30 06:07:03;;;;;;;0.45;0.45;;;26.10;56.40;;;;;;4987886;28;20551;-86
2023/07/30 06:09:28;;;;;;;0.00;0.00;;;26.40;56.60;;;;;;4982857;28;20042;-79
2023/07/30 06:11:56;;;;;;;0.63;0.32;;;26.70;54.80;;;;;;4979418;28;20030;-80
2023/07/30 06:14:22;;;;;;;0.00;0.00;;;26.80;54.30;;;;;;4982177;28;20036;-83
2023/07/30 06:16:48;;;;;;;0.00;0.00;;;27.30;53.70;;;;;;4982543;28;20038;-84
2023/07/30 06:19:13;;;;;;;0.03;0.03;;;27.50;52.70;;;;;;4983734;28;20030;-82
2023/07/30 06:21:39;;;;;;;0.00;0.00;;;27.70;51.70;;;;;;4981598;28;20065;-80
2023/07/30 06:24:05;;;;;;;0.05;0.05;;;27.70;51.60;;;;;;4981994;28;20121;-80
2023/07/30 06:26:30;;;;;;;0.08;0.08;;;27.60;51.30;;;;;;4981544;28;20065;-81
2023/07/30 06:28:57;;;;;;;0.00;0.00;;;27.70;51.20;;;;;;4981581;28;20081;-83
2023/07/30 06:31:22;;;;;;;0.00;0.00;;;28.10;50.70;;;;;;4983001;28;20023;-80
2023/07/30 06:33:48;;;;;;;1.65;1.10;;;28.60;51.00;;;;;;4984331;28;20041;-80
2023/07/30 06:36:14;;;;;;;0.10;0.10;;;28.80;49.40;;;;;;4981684;28;20072;-81
2023/07/30 06:38:39;;;;;;;0.00;0.00;;;29.20;49.20;;;;;;4981864;28;20473;-82
2023/07/30 06:41:05;;;;;;;0.00;0.00;;;28.80;49.10;;;;;;4983953;28;20026;-80
2023/07/30 06:43:31;;;;;;;0.03;0.03;;;29.10;48.30;;;;;;4981345;28;20026;-80
2023/07/30 06:45:56;;;;;;;0.00;0.00;;;28.80;47.10;;;;;;4983135;28;20065;-81
2023/07/30 06:48:22;;;;;;;0.20;0.20;;;29.70;48.00;;;;;;4982486;28;20517;-82
2023/07/30 06:50:48;;;;;;;0.00;0.00;;;29.50;46.40;;;;;;4979708;28;20410;-81
2023/07/30 06:53:13;;;;;;;;;;;29.40;45.80;;;;;;4981322;28;20027;-82
2023/07/30 06:55:39;;;;;;;;;;;30.00;45.90;;;;;;4982008;28;19925;-80
2023/07/30 06:58:05;;;;;;;;;;;30.00;44.70;;;;;;4982935;28;19959;-80
2023/07/30 07:00:30;;;;;;;;;;;30.30;43.80;;;;;;4985639;28;19913;-79
2023/07/30 07:02:56;;;;;;;0.00;0.00;;;30.30;44.10;;;;;;4981196;28;20293;-84
2023/07/30 07:05:22;;;;;;;;;;;30.50;44.00;;;;;;4983265;28;20041;-81
2023/07/30 07:07:47;;;;;;;0.00;0.00;;;30.50;44.00;;;;;;4982066;28;20396;-83
2023/07/30 07:10:13;;;;;;;;;;;30.80;44.10;;;;;;4983438;28;20129;-81
2023/07/30 07:12:39;;;;;;;0.00;0.00;;;29.40;45.20;;;;;;4982628;28;20392;-80
2023/07/30 07:15:06;;;;;;;0.00;0.00;;;30.50;45.20;;;;;;4981973;28;20117;-82
2023/07/30 07:17:31;;;;;;;0.00;0.00;;;31.50;41.80;;;;;;4981797;28;20573;-81
2023/07/30 07:19:58;;;;;;;;;;;30.80;41.40;;;;;;4983218;28;20045;-81
2023/07/30 07:22:24;;;;;;;0.00;0.00;;;31.60;42.80;;;;;;4981535;28;19926;-80
2023/07/30 07:24:52;;;;;;;0.03;0.03;;;32.30;41.50;;;;;;4982233;28;20054;-81
2023/07/30 07:27:23;;;;;;;0.00;0.00;;;32.50;41.20;;;;;;4982043;28;20466;-80
2023/07/30 07:29:48;;;;;;;0.00;0.00;;;29.90;43.90;;;;;;4982445;28;20032;-81
2023/07/30 07:32:14;;;;;;;;;;;29.50;42.80;;;;;;4980625;28;20030;-82
2023/07/30 07:34:40;;;;;;;0.00;0.00;;;28.60;48.50;;;;;;4981814;28;20366;-82
2023/07/30 07:37:06;;;;;;;;;;;28.30;48.90;;;;;;4981970;28;20038;-79
2023/07/30 07:39:33;;;;;;;0.00;0.00;;;26.90;48.10;;;;;;4977775;28;20026;-83
2023/07/30 07:41:58;;;;;;;0.00;0.00;;;28.60;48.00;;;;;;4981563;28;20051;-80
2023/07/30 07:44:24;;;;;;;0.05;0.05;;;26.20;50.40;;;;;;4982609;28;20094;-83
2023/07/30 07:46:50;;;;;;;0.25;0.15;;;27.50;49.40;;;;;;4982535;28;20030;-81
2023/07/30 07:49:15;;;;;;;0.00;0.00;;;26.30;52.00;;;;;;4981786;28;20117;-79
2023/07/30 07:51:41;;;;;;;0.00;0.00;;;30.90;45.00;;;;;;4976155;28;20130;-81
2023/07/30 07:54:07;;;;;;;;;;;31.50;42.40;;;;;;4980775;28;20054;-84
2023/07/30 07:56:32;;;;;;;0.00;0.00;;;33.50;40.80;;;;;;4982889;28;19924;-82
2023/07/30 07:58:59;;;;;;;0.00;0.00;;;34.10;39.00;;;;;;4982427;28;20109;-82
2023/07/30 08:01:24;;;;;;;0.40;0.35;;;34.30;39.80;;;;;;4982715;28;20023;-80
2023/07/30 08:03:50;;;;;;;0.43;0.43;;;33.10;38.70;;;;;;4982085;28;20037;-79
2023/07/30 08:06:16;;;;;;;0.00;0.00;;;32.10;41.30;;;;;;4979970;28;20030;-80
2023/07/30 08:08:42;;;;;;;0.13;0.13;;;33.60;40.30;;;;;;4983103;28;20033;-80
2023/07/30 08:11:08;;;;;;;0.00;0.00;;;34.40;36.40;;;;;;4985185;28;20030;-82
2023/07/30 08:13:35;;;;;;;0.00;0.00;;;35.10;36.10;;;;;;4983030;28;20026;-80
2023/07/30 08:16:01;;;;;;;0.65;0.55;;;33.50;37.70;;;;;;4971648;28;20042;-78
2023/07/30 08:18:27;;;;;;;0.20;0.20;;;33.40;37.90;;;;;;4980100;28;20034;-81
2023/07/30 08:20:53;;;;;;;0.20;0.20;;;33.50;37.30;;;;;;4985073;28;20054;-80
2023/07/30 08:23:19;;;;;;;0.38;0.38;;;34.80;37.70;;;;;;4985203;28;20524;-80
2023/07/30 08:25:44;;;;;;;0.00;0.00;;;34.00;37.30;;;;;;4985139;28;20113;-80
2023/07/30 08:28:10;;;;;;;0.00;0.00;;;33.30;36.80;;;;;;4979606;28;20516;-78
2023/07/30 08:30:36;;;;;;;0.00;0.00;;;35.10;35.20;;;;;;4972402;28;20026;-80
2023/07/30 08:33:01;;;;;;;0.13;0.13;;;33.00;37.50;;;;;;4975581;28;20782;-83
2023/07/30 08:35:27;;;;;;;0.10;0.10;;;30.20;42.40;;;;;;4993175;28;20850;-81
2023/07/30 08:37:54;;;;;;;0.10;0.10;;;31.90;40.40;;;;;;4979166;28;20474;-78
2023/07/30 08:40:23;;;;;;;0.00;0.00;;;32.80;38.10;;;;;;4984730;28;20065;-78
2023/07/30 08:42:51;;;;;;;0.00;0.00;;;34.60;37.60;;;;;;4985399;28;20026;-79
2023/07/30 08:45:17;;;;;;;0.00;0.00;;;33.70;37.50;;;;;;4984944;28;20040;-79
2023/07/30 08:47:42;;;;;;;0.05;0.05;;;31.10;37.90;;;;;;4983929;28;20034;-79
2023/07/30 08:50:09;;;;;;;0.00;0.00;;;30.80;39.50;;;;;;4981866;28;20033;-82
2023/07/30 08:52:35;;;;;;;0.00;0.00;;;32.30;37.60;;;;;;4982630;28;20088;-80
2023/07/30 08:55:03;;;;;;;0.00;0.00;;;31.90;38.30;;;;;;4984509;28;20125;-79
2023/07/30 08:57:29;;;;;;;0.00;0.00;;;31.80;39.20;;;;;;4980457;28;20062;-79
2023/07/30 09:00:04;;;;;;;0.00;0.00;;;34.00;37.70;;;;;;4987911;28;20100;-81
2023/07/30 09:02:50;;;;;;;0.03;0.03;;;32.90;38.00;;;;;;4987283;28;20041;-78
2023/07/30 09:05:16;;;;;;;0.00;0.00;;;30.10;41.40;;;;;;4986084;28;20056;-84
2023/07/30 09:07:43;;;;;;;0.00;0.00;;;30.00;40.40;;;;;;4984185;28;20038;-82
2023/07/30 09:10:08;;;;;;;;;;;29.50;43.70;;;;;;4985052;28;20041;-81
2023/07/30 09:12:36;;;;;;;0.55;0.45;;;31.60;41.20;;;;;;4981993;28;20376;-80
2023/07/30 09:15:04;;;;;;;0.00;0.00;;;33.20;38.70;;;;;;4984545;28;20257;-78
2023/07/30 09:17:30;;;;;;;0.00;0.00;;;31.40;38.00;;;;;;4983256;28;20062;-77
2023/07/30 09:19:56;;;;;;;;;;;29.60;42.20;;;;;;4982036;28;20034;-78
2023/07/30 09:22:26;;;;;;;0.38;0.32;;;30.50;41.80;;;;;;4982286;28;19926;-79
2023/07/30 09:24:53;;;;;;;0.00;0.00;;;28.30;44.00;;;;;;4982173;28;20031;-78
2023/07/30 09:27:30;;;;;;;0.00;0.00;;;27.40;45.60;;;;;;4979976;28;20046;-81
2023/07/30 09:29:57;;;;;;;0.00;0.00;;;26.90;45.60;;;;;;4982748;28;20044;-81
2023/07/30 09:32:30;;;;;;;0.15;0.15;;;27.20;46.30;;;;;;4973410;28;20050;-78
2023/07/30 09:35:09;;;;;;;1.08;0.52;;;32.50;41.10;;;;;;4985506;28;20029;-78
2023/07/30 09:37:40;;;;;;;0.10;0.10;;;30.80;40.10;;;;;;4975911;28;20049;-77
2023/07/30 09:40:12;;;;;;;0.00;0.00;;;34.80;36.90;;;;;;4981762;28;20041;-80
2023/07/30 09:42:41;;;;;;;0.00;0.00;;;36.10;36.10;;;;;;4979027;28;20030;-80
2023/07/30 09:45:08;;;;;;;0.00;0.00;;;35.20;35.40;;;;;;4981552;28;20026;-80
2023/07/30 09:47:36;;;;;;;0.00;0.00;;;36.40;35.70;;;;;;4980172;28;20039;-80
2023/07/30 09:50:03;;;;;;;0.00;0.00;;;36.70;33.10;;;;;;4971273;28;20142;-79
2023/07/30 09:52:30;;;;;;;2.47;1.02;;;31.10;38.80;;;;;;4979471;28;20285;-79
2023/07/30 09:54:57;;;;;;;0.52;0.30;;;35.00;37.20;;;;;;4983782;28;20031;-77
2023/07/30 09:57:23;;;;;;;0.00;0.00;;;36.90;36.20;;;;;;4982343;28;20072;-77
2023/07/30 09:59:49;;;;;;;0.00;0.00;;;37.20;35.50;;;;;;4982952;28;20456;-81
2023/07/30 10:02:16;;;;;;;0.57;0.40;;;33.50;37.20;;;;;;4971531;28;20466;-80
2023/07/30 10:04:47;;;;;;;0.00;0.00;;;35.40;35.30;;;;;;4983612;28;20034;-83
2023/07/30 10:07:18;;;;;;;0.00;0.00;;;36.30;35.10;;;;;;4982807;28;20680;-86
2023/07/30 10:09:46;;;;;;;0.28;0.28;;;37.70;33.90;;;;;;4981251;28;20062;-80
2023/07/30 10:12:23;;;;;;;0.15;0.15;;;34.10;34.40;;;;;;4980446;28;20100;-79
2023/07/30 10:14:49;;;;;;;0.00;0.00;;;32.00;36.90;;;;;;4973982;28;20019;-79
2023/07/30 10:17:18;;;;;;;0.00;0.00;;;29.80;41.10;;;;;;4983123;28;20053;-78
2023/07/30 10:19:49;;;;;;;10.70;0.65;;;31.80;40.60;;;;;;4982183;28;20745;-78
2023/07/30 10:22:14;;;;;;;3.17;0.63;;;34.70;36.40;;;;;;4982956;28;20205;-80
2023/07/30 10:25:01;;;;;;;0.00;0.00;;;35.70;35.00;;;;;;4982097;28;20030;-78
2023/07/30 10:27:36;;;;;;;0.00;0.00;;;36.80;33.80;;;;;;4984376;28;20116;-78
2023/07/30 10:30:14;;;;;;;0.20;0.20;;;37.20;33.50;;;;;;4976037;28;20128;-80
2023/07/30 10:32:55;;;;;;;0.00;0.00;;;36.40;33.30;;;;;;4981648;28;20602;-79
2023/07/30 10:35:38;;;;;;;0.00;0.00;;;35.50;33.20;;;;;;4981294;28;20524;-81
2023/07/30 10:38:17;;;;;;;0.00;0.00;;;35.20;32.80;;;;;;4976258;28;20125;-78
2023/07/30 10:41:20;;;;;;;0.43;0.43;;;34.40;33.80;;;;;;4973860;28;20038;-79
2023/07/30 10:43:50;;;;;;;0.22;0.22;;;32.80;36.90;;;;;;4982977;28;20080;-76
2023/07/30 10:46:19;;;;;;;0.00;0.00;;;32.30;37.50;;;;;;4981932;28;20030;-77
2023/07/30 10:48:49;;;;;;;0.45;0.35;;;31.40;37.20;;;;;;4982386;28;20056;-76
2023/07/30 10:51:16;;;;;;;0.00;0.00;;;30.60;37.30;;;;;;4982902;28;20030;-81
2023/07/30 10:53:44;;;;;;;0.00;0.00;;;30.10;40.30;;;;;;4988263;28;20034;-79
2023/07/30 10:56:10;;;;;;;0.77;0.20;;;30.60;41.40;;;;;;4981756;28;20517;-77
2023/07/30 10:58:36;;;;;;;0.00;0.00;;;29.10;39.70;;;;;;4981732;28;20029;-75
2023/07/30 11:01:03;;;;;;;;;;;27.80;41.40;;;;;;4982552;28;20034;-77
2023/07/30 11:03:31;;;;;;;1.08;0.43;;;28.30;42.80;;;;;;4981950;28;19914;-78
2023/07/30 11:05:58;;;;;;;0.00;0.00;;;29.00;43.30;;;;;;4982044;28;20022;-79
2023/07/30 11:08:33;;;;;;;0.10;0.10;;;28.90;42.30;;;;;;4980748;28;20081;-77
2023/07/30 11:11:00;;;;;;;0.00;0.00;;;28.50;44.60;;;;;;4975931;28;20042;-78
2023/07/30 11:13:26;;;;;;;0.00;0.00;;;28.30;45.20;;;;;;4981332;28;20089;-76
2023/07/30 11:15:51;;;;;;;0.00;0.00;;;29.00;44.60;;;;;;4982635;28;20042;-78
2023/07/30 11:18:17;;;;;;;0.00;0.00;;;29.40;45.00;;;;;;4980188;28;20766;-80
2023/07/30 11:20:43;;;;;;;0.00;0.00;;;29.30;43.20;;;;;;4982419;28;20125;-78
2023/07/30 11:23:22;;;;;;;0.00;0.00;;;29.40;44.50;;;;;;4981954;28;20080;-79
2023/07/30 11:25:49;;;;;;;0.00;0.00;;;29.10;42.60;;;;;;4979986;28;20030;-79
2023/07/30 11:28:36;;;;;;;0.00;0.00;;;29.30;43.80;;;;;;4981194;28;20529;-79
2023/07/30 11:31:08;;;;;;;0.00;0.00;;;28.60;45.30;;;;;;4976378;28;20126;-78
2023/07/30 11:33:40;;;;;;;0.00;0.00;;;29.30;45.10;;;;;;4979429;28;20026;-77
2023/07/30 11:36:07;;;;;;;0.13;0.13;;;28.80;42.80;;;;;;4977295;28;20070;-77
2023/07/30 11:38:34;;;;;;;0.00;0.00;;;28.50;46.50;;;;;;4976745;28;20498;-76
2023/07/30 11:41:01;;;;;;;0.00;0.00;;;28.50;46.40;;;;;;4979581;28;20038;-76
2023/07/30 11:43:27;;;;;;;0.00;0.00;;;27.90;44.50;;;;;;4982101;28;20061;-80
2023/07/30 11:46:12;;;;;;;;;;;27.40;44.90;;;;;;4984390;28;20500;-78
2023/07/30 11:48:40;;;;;;;0.00;0.00;;;26.80;44.10;;;;;;4985966;28;19913;-77
2023/07/30 11:51:07;;;;;;;0.10;0.10;;;27.90;46.70;;;;;;4984321;28;20045;-78
2023/07/30 11:53:56;;;;;;;0.08;0.08;;;28.10;44.00;;;;;;4986853;28;20041;-79
2023/07/30 11:56:26;;;;;;;0.00;0.00;;;27.60;43.50;;;;;;4997746;28;20050;-78
2023/07/30 11:59:00;;;;;;;0.00;0.00;;;27.60;44.80;;;;;;4989983;28;20029;-77
2023/07/30 12:01:28;;;;;;;0.00;0.00;;;27.40;45.30;;;;;;4983250;28;20022;-77
2023/07/30 12:03:57;;;;;;;0.00;0.00;;;27.10;48.00;;;;;;4980602;28;20030;-76
2023/07/30 12:06:23;;;;;;;0.32;0.30;;;27.10;46.70;;;;;;4985641;28;20026;-77
2023/07/30 12:08:50;;;;;;;0.63;0.15;;;27.60;46.60;;;;;;4981851;28;20113;-76
2023/07/30 12:11:21;;;;;;;0.00;0.00;;;28.20;46.80;;;;;;4982241;28;20638;-79
2023/07/30 12:13:47;;;;;;;0.00;0.00;;;27.80;45.70;;;;;;4979555;28;20030;-78
2023/07/30 12:16:14;;;;;;;0.00;0.00;;;27.90;46.40;;;;;;4983336;28;20052;-78
2023/07/30 12:18:40;;;;;;;0.08;0.08;;;27.30;43.80;;;;;;4980650;28;20127;-78
2023/07/30 12:21:07;;;;;;;2.72;0.65;;;27.00;44.10;;;;;;4980118;28;20580;-77
2023/07/30 12:23:37;;;;;;;0.43;0.25;;;27.10;45.80;;;;;;4982209;28;20046;-78
2023/07/30 12:26:05;;;;;;;0.00;0.00;;;27.00;44.70;;;;;;4984923;28;20097;-80
2023/07/30 12:28:33;;;;;;;0.00;0.00;;;26.90;43.90;;;;;;4983776;28;20026;-78
2023/07/30 12:30:59;;;;;;;0.00;0.00;;;26.30;45.30;;;;;;4983751;28;20084;-78
2023/07/30 12:33:25;;;;;;;0.08;0.08;;;26.20;46.30;;;;;;4984586;28;20026;-78
2023/07/30 12:35:51;;;;;;;0.00;0.00;;;26.20;47.60;;;;;;4983410;28;20658;-76
2023/07/30 12:38:16;;;;;;;0.45;0.45;;;25.90;47.00;;;;;;4984569;28;20030;-79
2023/07/30 12:40:42;;;;;;;0.28;0.28;;;25.90;47.60;;;;;;4983849;28;20066;-78
2023/07/30 12:43:09;;;;;;;0.20;0.20;;;25.80;47.20;;;;;;4985903;28;20034;-80
2023/07/30 12:45:34;;;;;;;0.00;0.00;;;25.80;46.50;;;;;;4984252;28;20117;-77
2023/07/30 12:48:01;;;;;;;0.00;0.00;;;26.10;49.30;;;;;;4982695;28;20038;-78
2023/07/30 12:50:27;;;;;;;0.40;0.40;;;26.30;49.90;;;;;;4984034;28;20034;-78